Time;durP1;ratioP1;P1;durP2;ratioP2;P2;SDS_P1;SDS_P2;PMS_P1;PMS_P2;Temp;Humidity;BMP_temperature;BMP_pressure;BME280_temperature;BME280_humidity;BME280_pressure;Samples;Min_cycle;Max_cycle;Signal;HPM_P1;HPM_P2
2022/01/11 00:00:20;;;;;;;61.10;23.70;;;;;;;0.57;100.00;103072.69;5027024;28;20371;-73
2022/01/11 00:02:46;;;;;;;55.20;22.27;;;;;;;0.57;100.00;103072.69;5029570;28;20481;-73
2022/01/11 00:05:20;;;;;;;63.25;23.15;;;;;;;0.58;100.00;103068.41;5035635;28;20470;-73
2022/01/11 00:07:46;;;;;;;62.75;23.73;;;;;;;0.55;100.00;103063.88;5030354;28;20065;-74
2022/01/11 00:10:20;;;;;;;69.60;25.38;;;;;;;0.55;100.00;103063.88;5017037;28;20030;-73
2022/01/11 00:12:45;;;;;;;;;;;;;;;0.55;100.00;103066.44;5024938;28;20116;-73
2022/01/11 00:15:11;;;;;;;65.82;24.40;;;;;;;0.56;100.00;103064.78;5035794;28;19999;-73
2022/01/11 00:17:36;;;;;;;64.28;23.35;;;;;;;0.55;100.00;103069.03;5035242;28;20025;-73
2022/01/11 00:20:03;;;;;;;65.32;23.92;;;;;;;0.55;100.00;103074.22;5035744;28;20519;-73
2022/01/11 00:22:32;;;;;;;72.82;26.02;;;;;;;0.56;100.00;103080.34;5034263;28;20079;-73
2022/01/11 00:24:57;;;;;;;65.20;24.52;;;;;;;0.53;100.00;103080.97;5019597;28;20034;-73
2022/01/11 00:27:23;;;;;;;70.07;26.70;;;;;;;0.54;100.00;103090.53;5037796;28;20490;-73
2022/01/11 00:29:51;;;;;;;73.03;26.15;;;;;;;0.56;100.00;103096.78;5034233;28;20046;-73
2022/01/11 00:32:25;;;;;;;65.07;26.67;;;;;;;0.54;100.00;103103.47;5023947;28;20095;-73
2022/01/11 00:34:52;;;;;;;70.53;24.85;;;;;;;0.55;100.00;103107.91;5030846;28;20385;-73
2022/01/11 00:37:20;;;;;;;78.18;27.55;;;;;;;0.54;100.00;103098.28;5025889;28;20831;-73
2022/01/11 00:39:46;;;;;;;80.80;27.65;;;;;;;0.55;100.00;103097.53;5020059;28;20038;-73
2022/01/11 00:42:13;;;;;;;82.68;29.13;;;;;;;0.54;100.00;103098.28;5024738;28;20021;-73
2022/01/11 00:44:38;;;;;;;77.47;25.08;;;;;;;0.54;100.00;103098.28;5034961;28;20087;-73
2022/01/11 00:47:04;;;;;;;80.05;27.08;;;;;;;0.56;100.00;103095.88;5021033;28;20025;-73
2022/01/11 00:49:32;;;;;;;81.97;28.77;;;;;;;0.55;100.00;103087.19;5024161;28;20042;-73
2022/01/11 00:51:57;;;;;;;83.38;28.27;;;;;;;0.58;100.00;103092.63;5024316;28;20473;-74
2022/01/11 00:54:23;;;;;;;89.90;29.33;;;;;;;0.58;100.00;103100.41;5031548;28;20029;-74
2022/01/11 00:56:48;;;;;;;89.97;28.17;;;;;;;0.61;100.00;103100.72;5033790;28;20064;-73
2022/01/11 00:59:13;;;;;;;85.25;29.30;;;;;;;0.62;100.00;103107.69;5023409;28;20068;-73
2022/01/11 01:01:38;;;;;;;82.60;26.92;;;;;;;0.65;100.00;103102.81;5028115;28;20034;-74
2022/01/11 01:04:06;;;;;;;82.57;28.58;;;;;;;0.66;100.00;103098.53;5033298;28;20505;-74
2022/01/11 01:06:31;;;;;;;65.75;24.35;;;;;;;0.65;100.00;103100.22;5030634;28;20029;-73
2022/01/11 01:08:58;;;;;;;61.88;23.42;;;;;;;0.66;100.00;103090.78;5027900;28;20037;-74
2022/01/11 01:11:23;;;;;;;58.75;23.58;;;;;;;0.69;100.00;103104.00;5030623;28;20060;-73
2022/01/11 01:13:48;;;;;;;66.95;23.77;;;;;;;0.71;100.00;103099.88;5022552;28;20061;-74
2022/01/11 01:16:14;;;;;;;57.28;21.88;;;;;;;0.72;100.00;103099.13;5024900;28;20029;-73
2022/01/11 01:18:39;;;;;;;57.85;23.25;;;;;;;0.71;100.00;103094.72;5033008;28;20469;-74
2022/01/11 01:21:05;;;;;;;59.05;24.38;;;;;;;0.72;100.00;103090.41;5033621;28;20037;-73
2022/01/11 01:23:31;;;;;;;59.85;23.55;;;;;;;0.72;100.00;103096.53;5024028;28;20030;-73
2022/01/11 01:25:56;;;;;;;68.70;25.35;;;;;;;0.72;100.00;103093.00;5031994;28;20029;-75
2022/01/11 01:28:22;;;;;;;56.20;22.50;;;;;;;0.73;100.00;103092.25;5028288;28;20025;-73
2022/01/11 01:30:48;;;;;;;56.90;24.27;;;;;;;0.70;100.00;103102.34;5025354;28;20034;-73
2022/01/11 01:33:14;;;;;;;64.18;23.70;;;;;;;0.75;100.00;103103.69;5027957;28;20030;-73
2022/01/11 01:35:43;;;;;;;60.50;24.30;;;;;;;0.71;100.00;103101.59;5025895;28;20038;-73
2022/01/11 01:38:10;;;;;;;58.83;23.58;;;;;;;0.70;100.00;103105.81;5034067;28;20378;-73
2022/01/11 01:40:42;;;;;;;60.55;24.25;;;;;;;0.73;100.00;103110.38;5020652;28;20022;-73
2022/01/11 01:43:10;;;;;;;66.38;24.08;;;;;;;0.74;100.00;103114.81;5024763;28;20113;-74
2022/01/11 01:45:38;;;;;;;64.57;24.92;;;;;;;0.74;100.00;103107.94;5032594;28;20022;-74
2022/01/11 01:48:03;;;;;;;59.08;24.35;;;;;;;0.78;100.00;103110.03;5028062;28;20117;-74
2022/01/11 01:50:29;;;;;;;61.05;24.70;;;;;;;0.79;100.00;103105.78;5023152;28;20108;-74
2022/01/11 01:52:57;;;;;;;62.58;25.10;;;;;;;0.78;100.00;103112.63;5030111;28;20087;-74
2022/01/11 01:55:23;;;;;;;66.70;25.15;;;;;;;0.79;100.00;103118.75;5018994;28;20105;-73
2022/01/11 01:57:50;;;;;;;69.25;25.33;;;;;;;0.79;100.00;103119.66;5019313;28;20029;-73
2022/01/11 02:00:17;;;;;;;61.90;25.98;;;;;;;0.81;100.00;103114.59;5023775;28;20049;-74
2022/01/11 02:02:43;;;;;;;62.08;25.70;;;;;;;0.77;100.00;103118.59;5032853;28;20030;-75
2022/01/11 02:05:08;;;;;;;65.95;24.73;;;;;;;0.76;100.00;103116.78;5025497;28;20150;-74
2022/01/11 02:07:34;;;;;;;65.97;26.02;;;;;;;0.77;100.00;103112.50;5018236;28;20041;-73
2022/01/11 02:10:01;;;;;;;67.93;26.23;;;;;;;0.74;100.00;103113.13;5024314;28;20025;-73
2022/01/11 02:12:27;;;;;;;71.20;26.95;;;;;;;0.74;100.00;103107.94;5015282;28;20053;-73
2022/01/11 02:14:53;;;;;;;71.07;27.85;;;;;;;0.75;100.00;103119.22;5013999;28;20036;-73
2022/01/11 02:17:18;;;;;;;63.53;25.98;;;;;;;0.74;100.00;103122.59;5033038;28;20033;-73
2022/01/11 02:19:44;;;;;;;66.10;26.23;;;;;;;0.73;100.00;103126.84;5029775;28;20018;-73
2022/01/11 02:22:09;;;;;;;70.57;25.10;;;;;;;0.76;100.00;103137.50;5026283;28;20378;-73
2022/01/11 02:24:34;;;;;;;64.43;25.25;;;;;;;0.75;100.00;103138.28;5029520;28;20040;-72
2022/01/11 02:27:00;;;;;;;71.82;27.60;;;;;;;0.75;100.00;103145.16;5026283;28;20025;-73
2022/01/11 02:29:27;;;;;;;73.15;26.35;;;;;;;0.75;100.00;103145.16;5019339;28;20025;-73
2022/01/11 02:31:53;;;;;;;72.88;27.58;;;;;;;0.74;100.00;103139.03;5030462;28;20038;-73
2022/01/11 02:34:18;;;;;;;66.25;26.17;;;;;;;0.76;100.00;103136.59;5029067;28;20071;-72
2022/01/11 02:36:43;;;;;;;78.13;27.00;;;;;;;0.80;100.00;103123.13;5027659;28;20044;-73
2022/01/11 02:39:09;;;;;;;71.63;27.73;;;;;;;0.77;100.00;103118.59;5019752;28;20070;-72
2022/01/11 02:41:35;;;;;;;80.35;27.90;;;;;;;0.78;100.00;103129.88;5018681;28;20021;-73
2022/01/11 02:44:01;;;;;;;79.38;28.20;;;;;;;0.76;100.00;103131.41;5025615;28;20030;-74
2022/01/11 02:46:27;;;;;;;70.78;26.52;;;;;;;0.78;100.00;103129.88;5017381;28;20029;-73
2022/01/11 02:48:55;;;;;;;72.18;28.02;;;;;;;0.78;100.00;103141.16;5026581;28;20481;-72
2022/01/11 02:51:22;;;;;;;70.82;27.65;;;;;;;0.79;100.00;103131.72;5032206;28;20234;-73
2022/01/11 02:53:50;;;;;;;74.47;26.60;;;;;;;0.77;100.00;103138.41;5027080;28;20098;-73
2022/01/11 02:56:16;;;;;;;78.65;29.85;;;;;;;0.78;100.00;103135.97;5025058;28;20470;-73
2022/01/11 02:58:42;;;;;;;77.65;27.23;;;;;;;0.82;100.00;103142.34;5027325;28;20026;-73
2022/01/11 03:01:09;;;;;;;77.10;28.98;;;;;;;0.89;100.00;103136.06;5030381;28;20033;-73
2022/01/11 03:03:35;;;;;;;82.55;28.98;;;;;;;0.85;100.00;103134.84;5023842;28;20032;-73
2022/01/11 03:06:02;;;;;;;82.82;29.50;;;;;;;0.83;100.00;103144.19;5025927;28;20026;-73
2022/01/11 03:08:30;;;;;;;84.50;30.40;;;;;;;0.85;100.00;103153.00;5019783;28;20025;-73
2022/01/11 03:10:56;;;;;;;80.45;29.45;;;;;;;0.86;100.00;103151.34;5030940;28;20074;-72
2022/01/11 03:13:22;;;;;;;92.18;30.98;;;;;;;0.84;100.00;103157.28;5021085;28;20444;-73
2022/01/11 03:15:48;;;;;;;83.38;31.60;;;;;;;0.84;100.00;103164.13;5021219;28;20056;-73
2022/01/11 03:18:15;;;;;;;87.50;31.17;;;;;;;0.85;100.00;103168.53;5027207;28;20048;-73
2022/01/11 03:20:43;;;;;;;77.18;29.70;;;;;;;0.87;100.00;103166.09;5026041;28;20041;-73
2022/01/11 03:23:08;;;;;;;82.28;30.95;;;;;;;0.85;100.00;103168.53;5029942;28;20069;-73
2022/01/11 03:25:35;;;;;;;77.80;29.02;;;;;;;0.84;100.00;103166.72;5022225;28;20053;-73
2022/01/11 03:28:01;;;;;;;80.68;28.95;;;;;;;0.83;100.00;103160.63;5023981;28;20457;-73
2022/01/11 03:30:26;;;;;;;82.13;30.60;;;;;;;0.83;100.00;103160.63;5031315;28;20115;-73
2022/01/11 03:32:52;;;;;;;89.05;30.40;;;;;;;0.83;100.00;103152.84;5030383;28;20061;-75
2022/01/11 03:35:18;;;;;;;78.18;30.52;;;;;;;0.83;100.00;103158.03;5018492;28;20544;-73
2022/01/11 03:37:46;;;;;;;85.97;28.60;;;;;;;0.83;100.00;103159.72;5016213;28;20069;-74
2022/01/11 03:40:17;;;;;;;88.50;29.90;;;;;;;0.78;100.00;103154.09;5023676;28;20041;-73
2022/01/11 03:42:43;;;;;;;86.63;30.20;;;;;;;0.78;100.00;103153.19;5029034;28;20029;-73
2022/01/11 03:45:10;;;;;;;84.50;30.77;;;;;;;0.77;100.00;103151.38;5030633;28;20037;-73
2022/01/11 03:47:36;;;;;;;90.20;29.30;;;;;;;0.76;100.00;103152.13;5038821;28;20030;-73
2022/01/11 03:50:06;;;;;;;85.75;30.52;;;;;;;0.75;100.00;103145.16;5019965;28;20091;-73
2022/01/11 03:52:32;;;;;;;85.25;30.70;;;;;;;0.71;100.00;103140.44;5026949;28;20442;-73
2022/01/11 03:57:24;;;;;;;86.22;29.38;;;;;;;0.71;100.00;103128.41;5018920;28;20120;-73
2022/01/11 03:59:49;;;;;;;90.93;32.13;;;;;;;0.69;100.00;103126.41;5032632;28;20041;-73
2022/01/11 04:02:15;;;;;;;89.68;30.48;;;;;;;0.69;100.00;103129.00;5014986;28;20033;-73
2022/01/11 04:04:40;;;;;;;86.32;30.33;;;;;;;0.66;100.00;103129.63;5033069;28;20124;-73
2022/01/11 04:07:06;;;;;;;90.07;30.90;;;;;;;0.61;100.00;103136.06;5023903;28;20029;-73
2022/01/11 04:09:31;;;;;;;90.22;30.13;;;;;;;0.57;100.00;103133.94;5019943;28;20029;-74
2022/01/11 04:11:57;;;;;;;81.05;30.73;;;;;;;0.54;100.00;103134.56;5027553;28;20053;-73
2022/01/11 04:14:25;;;;;;;82.43;29.35;;;;;;;0.51;100.00;103144.66;5022226;28;20022;-73
2022/01/11 04:16:51;;;;;;;81.22;29.15;;;;;;;0.52;100.00;103145.53;5028955;28;20100;-73
2022/01/11 04:19:17;;;;;;;81.85;29.40;;;;;;;0.50;100.00;103148.00;5024809;28;20022;-73
2022/01/11 04:21:42;;;;;;;74.95;29.52;;;;;;;0.48;100.00;103149.53;5015940;28;20544;-73
2022/01/11 04:24:11;;;;;;;82.35;30.98;;;;;;;0.46;100.00;103151.06;5028116;28;20030;-72
2022/01/11 04:26:36;;;;;;;80.32;29.30;;;;;;;0.43;100.00;103156.84;5021152;28;20026;-74
2022/01/11 04:29:01;;;;;;;75.30;28.83;;;;;;;0.45;100.00;103157.03;5031440;28;20042;-73
2022/01/11 04:31:27;;;;;;;83.95;29.20;;;;;;;0.45;100.00;103159.63;5019392;28;20025;-72
2022/01/11 04:33:52;;;;;;;81.85;29.65;;;;;;;0.48;100.00;103157.31;5030116;28;20048;-72
2022/01/11 04:36:17;;;;;;;82.47;30.80;;;;;;;0.49;100.00;103151.38;5014846;28;20033;-73
2022/01/11 04:38:43;;;;;;;92.25;31.95;;;;;;;0.49;100.00;103147.09;5021132;28;20049;-73
2022/01/11 04:41:09;;;;;;;90.22;31.23;;;;;;;0.52;100.00;103146.47;5034039;28;20025;-74
2022/01/11 04:43:34;;;;;;;87.82;32.13;;;;;;;0.51;100.00;103139.47;5021578;28;20101;-72
2022/01/11 04:46:00;;;;;;;94.05;33.13;;;;;;;0.52;100.00;103151.66;5017590;28;20025;-73
2022/01/11 04:48:26;;;;;;;91.78;32.67;;;;;;;0.54;100.00;103146.63;5030525;28;20029;-73
2022/01/11 04:50:52;;;;;;;93.03;33.83;;;;;;;0.55;100.00;103151.94;5015521;28;20033;-74
2022/01/11 04:53:17;;;;;;;95.32;34.88;;;;;;;0.55;100.00;103154.53;5032000;28;20036;-73
2022/01/11 04:55:43;;;;;;;92.32;33.65;;;;;;;0.56;100.00;103156.38;5017468;28;20117;-73
2022/01/11 04:58:09;;;;;;;88.80;32.90;;;;;;;0.58;100.00;103152.22;5028014;28;20115;-73
2022/01/11 05:00:35;;;;;;;86.95;32.75;;;;;;;0.59;100.00;103155.75;5023444;28;20026;-73
2022/01/11 05:03:00;;;;;;;85.47;31.00;;;;;;;0.60;100.00;103152.41;5026408;28;20036;-73
2022/01/11 05:05:29;;;;;;;79.22;29.63;;;;;;;0.60;100.00;103152.41;5017608;28;20029;-74
2022/01/11 05:07:55;;;;;;;85.18;31.60;;;;;;;0.61;100.00;103157.72;5014581;28;20041;-74
2022/01/11 05:10:21;;;;;;;84.22;33.05;;;;;;;0.62;100.00;103153.44;5030445;28;20060;-73
2022/01/11 05:12:46;;;;;;;81.93;31.40;;;;;;;0.63;100.00;103155.25;5032011;28;20060;-73
2022/01/11 05:15:14;;;;;;;77.65;31.45;;;;;;;0.66;100.00;103151.28;5019837;28;20057;-73
2022/01/11 05:17:40;;;;;;;78.95;30.27;;;;;;;0.64;100.00;103160.59;5024200;28;20543;-74
2022/01/11 05:20:07;;;;;;;70.28;30.90;;;;;;;0.63;100.00;103150.09;5024422;28;20045;-74
2022/01/11 05:22:33;;;;;;;75.95;30.15;;;;;;;0.63;100.00;103158.75;5018836;28;20104;-74
2022/01/11 05:24:58;;;;;;;82.63;30.20;;;;;;;0.62;100.00;103151.75;5014968;28;20029;-74
2022/01/11 05:27:24;;;;;;;70.30;28.60;;;;;;;0.62;100.00;103153.44;5020997;28;20560;-75
2022/01/11 05:29:50;;;;;;;66.03;28.42;;;;;;;0.63;100.00;103156.16;5033437;28;20087;-73
2022/01/11 05:32:15;;;;;;;68.13;29.63;;;;;;;0.62;100.00;103159.50;5032066;28;20022;-73
2022/01/11 05:34:41;;;;;;;69.07;27.38;;;;;;;0.61;100.00;103152.53;5028184;28;20036;-73
2022/01/11 05:37:06;;;;;;;62.50;27.98;;;;;;;0.62;100.00;103149.16;5035109;28;20052;-74
2022/01/11 05:39:31;;;;;;;59.45;26.10;;;;;;;0.63;100.00;103150.97;5026106;28;20509;-75
2022/01/11 05:41:57;;;;;;;55.40;27.27;;;;;;;0.66;100.00;103152.94;5017438;28;20053;-74
2022/01/11 05:44:22;;;;;;;58.83;26.70;;;;;;;0.67;100.00;103153.09;5032412;28;20358;-75
2022/01/11 05:46:49;;;;;;;60.28;27.17;;;;;;;0.71;100.00;103163.78;5030985;28;20032;-73
2022/01/11 05:49:14;;;;;;;55.42;26.35;;;;;;;0.72;100.00;103162.97;5032081;28;20444;-73
2022/01/11 05:51:39;;;;;;;53.72;24.83;;;;;;;0.74;100.00;103164.94;5028721;28;20033;-74
2022/01/11 05:54:05;;;;;;;56.70;26.27;;;;;;;0.76;100.00;103167.69;5026927;28;20501;-74
2022/01/11 05:56:30;;;;;;;55.28;24.83;;;;;;;0.80;100.00;103164.59;5029474;28;20027;-72
2022/01/11 05:58:55;;;;;;;60.97;26.33;;;;;;;0.79;100.00;103162.81;5022722;28;20474;-74
2022/01/11 06:01:23;;;;;;;52.72;22.83;;;;;;;0.79;100.00;103165.41;5030834;28;20543;-73
2022/01/11 06:03:48;;;;;;;55.08;24.13;;;;;;;0.78;100.00;103166.16;5018776;28;20026;-75
2022/01/11 06:06:14;;;;;;;56.60;25.25;;;;;;;0.79;100.00;103163.72;5032302;28;20350;-74
2022/01/11 06:08:39;;;;;;;59.42;26.52;;;;;;;0.81;100.00;103161.25;5022589;28;20065;-74
2022/01/11 06:11:06;;;;;;;53.95;24.88;;;;;;;0.79;100.00;103161.13;5028211;28;20041;-74
2022/01/11 06:13:31;;;;;;;50.75;24.52;;;;;;;0.77;100.00;103159.16;5033781;28;20028;-74
2022/01/11 06:15:57;;;;;;;59.30;23.95;;;;;;;0.76;100.00;103167.69;5025100;28;20482;-74
2022/01/11 06:18:22;;;;;;;50.67;24.23;;;;;;;0.76;100.00;103173.78;5029875;28;20091;-73
2022/01/11 06:20:47;;;;;;;53.95;24.15;;;;;;;0.75;100.00;103176.25;5020449;28;20049;-73
2022/01/11 06:23:13;;;;;;;53.58;24.38;;;;;;;0.75;100.00;103181.44;5027166;28;20052;-73
2022/01/11 06:25:38;;;;;;;55.88;23.88;;;;;;;0.75;100.00;103184.03;5021555;28;20033;-73
2022/01/11 06:28:04;;;;;;;51.45;24.13;;;;;;;0.75;100.00;103187.50;5023281;28;20017;-72
2022/01/11 06:30:30;;;;;;;50.38;22.92;;;;;;;0.75;100.00;103191.78;5028396;28;20513;-72
2022/01/11 06:32:56;;;;;;;48.28;24.25;;;;;;;0.72;100.00;103202.78;5025440;28;20033;-73
2022/01/11 06:35:22;;;;;;;50.83;24.08;;;;;;;0.72;100.00;103196.66;5024594;28;20030;-73
2022/01/11 06:37:48;;;;;;;53.50;25.08;;;;;;;0.72;100.00;103196.66;5027351;28;20041;-72
2022/01/11 06:40:16;;;;;;;50.55;24.27;;;;;;;0.70;100.00;103208.59;5029250;28;20117;-74
2022/01/11 06:42:42;;;;;;;57.15;23.90;;;;;;;0.74;100.00;103218.47;5020850;28;20167;-73
2022/01/11 06:45:08;;;;;;;48.70;23.75;;;;;;;0.76;100.00;103212.66;5030586;28;20071;-72
2022/01/11 06:47:34;;;;;;;45.25;22.08;;;;;;;0.75;100.00;103217.72;5033119;28;20029;-74
2022/01/11 06:49:59;;;;;;;44.75;21.73;;;;;;;0.74;100.00;103216.78;5027331;28;20030;-74
2022/01/11 06:52:25;;;;;;;49.03;22.95;;;;;;;0.77;100.00;103217.06;5029783;28;20029;-73
2022/01/11 06:54:50;;;;;;;45.97;23.02;;;;;;;0.79;100.00;103209.47;5015162;28;20030;-74
2022/01/11 06:57:15;;;;;;;44.30;22.38;;;;;;;0.81;100.00;103214.03;5027631;28;20033;-74
2022/01/11 06:59:41;;;;;;;47.30;22.50;;;;;;;0.78;100.00;103207.63;5031174;28;20029;-73
2022/01/11 07:02:07;;;;;;;46.33;22.05;;;;;;;0.79;100.00;103220.72;5016944;28;20113;-74
2022/01/11 07:04:33;;;;;;;44.00;21.85;;;;;;;0.80;100.00;103213.84;5014913;28;20072;-74
2022/01/11 07:06:58;;;;;;;42.28;21.88;;;;;;;0.80;100.00;103216.44;5024803;28;20034;-74
2022/01/11 07:09:24;;;;;;;51.88;21.67;;;;;;;0.80;100.00;103221.63;5023759;28;20099;-74
2022/01/11 07:11:50;;;;;;;42.13;20.67;;;;;;;0.80;100.00;103216.44;5016004;28;20022;-74
2022/01/11 07:14:16;;;;;;;44.65;21.65;;;;;;;0.81;100.00;103221.78;5026637;28;20362;-74
2022/01/11 07:16:43;;;;;;;45.03;21.75;;;;;;;0.83;100.00;103232.31;5019397;28;20445;-74
2022/01/11 07:19:10;;;;;;;36.55;19.85;;;;;;;0.80;100.00;103226.81;5020416;28;20048;-74
2022/01/11 07:21:35;;;;;;;49.40;23.67;;;;;;;0.77;100.00;103236.88;5024312;28;20462;-74
2022/01/11 07:24:02;;;;;;;50.72;22.25;;;;;;;0.77;100.00;103242.06;5017937;28;20026;-74
2022/01/11 07:26:27;;;;;;;40.05;19.88;;;;;;;0.75;100.00;103246.22;5029047;28;20104;-74
2022/01/11 07:28:53;;;;;;;39.45;20.42;;;;;;;0.74;100.00;103246.97;5026561;28;20116;-73
2022/01/11 07:31:18;;;;;;;43.00;20.63;;;;;;;0.75;100.00;103243.63;5018835;28;20022;-73
2022/01/11 07:33:43;;;;;;;38.58;20.17;;;;;;;0.74;100.00;103253.06;5015292;28;20028;-74
2022/01/11 07:36:09;;;;;;;46.45;19.98;;;;;;;0.72;100.00;103244.25;5026988;28;20068;-75
2022/01/11 07:38:34;;;;;;;43.33;20.52;;;;;;;0.69;100.00;103245.63;5015331;28;20046;-72
2022/01/11 07:40:59;;;;;;;39.28;20.23;;;;;;;0.67;100.00;103238.59;5031484;28;20072;-74
2022/01/11 07:43:25;;;;;;;34.80;18.65;;;;;;;0.68;100.00;103242.13;5024480;28;20086;-73
2022/01/11 07:45:50;;;;;;;40.13;19.17;;;;;;;0.66;100.00;103247.16;5020918;28;20041;-74
2022/01/11 07:48:15;;;;;;;44.08;20.83;;;;;;;0.67;100.00;103259.34;5026682;28;20060;-75
2022/01/11 07:50:41;;;;;;;42.97;19.27;;;;;;;0.66;100.00;103251.41;5029732;28;20037;-74
2022/01/11 07:53:06;;;;;;;38.10;19.48;;;;;;;0.66;100.00;103254.00;5018973;28;20071;-73
2022/01/11 07:55:32;;;;;;;40.40;19.50;;;;;;;0.60;100.00;103254.34;5012643;28;20467;-75
2022/01/11 07:57:58;;;;;;;40.70;18.42;;;;;;;0.61;100.00;103257.81;5027404;28;20466;-72
2022/01/11 08:00:23;;;;;;;43.25;20.23;;;;;;;0.56;100.00;103254.81;5021809;28;20483;-73
2022/01/11 08:02:49;;;;;;;34.40;19.35;;;;;;;0.59;100.00;103256.78;5025262;28;20036;-73
2022/01/11 08:05:15;;;;;;;44.28;19.00;;;;;;;0.58;100.00;103266.22;5026970;28;20116;-72
2022/01/11 08:07:42;;;;;;;38.72;19.77;;;;;;;0.60;100.00;103263.81;5017219;28;20024;-71
2022/01/11 08:10:09;;;;;;;46.15;18.50;;;;;;;0.58;100.00;103258.44;5021011;28;20029;-73
2022/01/11 08:12:34;;;;;;;40.97;19.20;;;;;;;0.59;100.00;103268.06;5026373;28;20136;-72
2022/01/11 08:15:00;;;;;;;37.47;17.77;;;;;;;0.60;100.00;103269.88;5031193;28;20104;-72
2022/01/11 08:17:28;;;;;;;37.55;18.35;;;;;;;0.57;100.00;103269.59;5024285;28;20037;-72
2022/01/11 08:19:53;;;;;;;40.03;17.75;;;;;;;0.58;100.00;103275.69;5035771;28;20049;-72
2022/01/11 08:22:19;;;;;;;39.33;18.77;;;;;;;0.60;100.00;103276.75;5033958;28;20068;-72
2022/01/11 08:24:44;;;;;;;38.05;18.58;;;;;;;0.59;100.00;103281.00;5026833;28;20088;-71
2022/01/11 08:27:10;;;;;;;40.78;18.25;;;;;;;0.61;100.00;103275.97;5023165;28;20026;-71
2022/01/11 08:29:36;;;;;;;42.08;19.10;;;;;;;0.58;100.00;103280.84;5022305;28;20045;-72
2022/01/11 08:32:01;;;;;;;34.88;16.48;;;;;;;0.58;100.00;103281.75;5033890;28;20025;-72
2022/01/11 08:34:27;;;;;;;32.83;16.33;;;;;;;0.60;100.00;103285.44;5035043;28;20144;-72
2022/01/11 08:36:54;;;;;;;39.85;17.20;;;;;;;0.59;100.00;103287.88;5023712;28;20037;-72
2022/01/11 08:39:19;;;;;;;35.05;16.75;;;;;;;0.60;100.00;103280.25;5030516;28;20042;-72
2022/01/11 08:41:45;;;;;;;34.05;16.98;;;;;;;0.60;100.00;103277.66;5028655;28;20033;-72
2022/01/11 08:44:11;;;;;;;36.92;17.20;;;;;;;0.61;100.00;103282.09;5045206;28;20083;-73
2022/01/11 08:46:41;;;;;;;35.55;16.77;;;;;;;0.62;100.00;103289.06;5029762;28;20025;-72
2022/01/11 08:49:07;;;;;;;40.08;17.17;;;;;;;0.65;100.00;103284.19;5020417;28;20142;-72
2022/01/11 08:51:33;;;;;;;38.25;17.45;;;;;;;0.66;100.00;103274.72;5026417;28;20026;-72
2022/01/11 08:53:59;;;;;;;32.15;16.50;;;;;;;0.70;100.00;103275.97;5028017;28;20041;-72
2022/01/11 08:56:25;;;;;;;34.78;17.27;;;;;;;0.72;100.00;103280.53;5034030;28;20492;-75
2022/01/11 08:58:51;;;;;;;39.10;17.77;;;;;;;0.70;100.00;103282.03;5034470;28;20374;-71
2022/01/11 09:01:17;;;;;;;32.97;16.60;;;;;;;0.71;100.00;103277.78;5025804;28;20032;-70
2022/01/11 09:03:43;;;;;;;34.45;16.25;;;;;;;0.72;100.00;103275.34;5041687;28;20022;-71
2022/01/11 09:06:09;;;;;;;32.67;16.50;;;;;;;0.71;100.00;103280.38;5026993;28;20044;-71
2022/01/11 09:08:36;;;;;;;36.30;15.40;;;;;;;0.71;100.00;103288.16;5022891;28;20044;-71
2022/01/11 09:11:04;;;;;;;33.33;16.17;;;;;;;0.75;100.00;103292.88;5020569;28;20466;-72
2022/01/11 09:13:29;;;;;;;31.08;15.02;;;;;;;0.76;100.00;103297.25;5024661;28;20021;-71
2022/01/11 09:15:55;;;;;;;34.08;16.67;;;;;;;0.78;100.00;103300.91;5021608;28;20034;-71
2022/01/11 09:18:20;;;;;;;35.40;15.55;;;;;;;0.80;100.00;103304.56;5018759;28;20473;-70
2022/01/11 09:20:45;;;;;;;30.92;15.98;;;;;;;0.84;100.00;103297.25;5033570;28;20021;-70
2022/01/11 09:23:10;;;;;;;29.80;16.00;;;;;;;0.84;100.00;103296.31;5024792;28;20423;-72
2022/01/11 09:25:36;;;;;;;36.85;17.02;;;;;;;0.87;100.00;103296.63;5021414;28;20018;-77
2022/01/11 09:28:02;;;;;;;34.15;15.45;;;;;;;0.88;100.00;103301.03;5017399;28;20025;-75
2022/01/11 09:30:27;;;;;;;36.50;16.20;;;;;;;0.89;100.00;103301.97;5027813;28;20072;-74
2022/01/11 09:32:54;;;;;;;30.50;15.80;;;;;;;0.88;100.00;103298.44;5021625;28;20030;-74
2022/01/11 09:35:20;;;;;;;33.03;15.70;;;;;;;0.90;100.00;103302.09;5029810;28;20402;-74
2022/01/11 09:37:46;;;;;;;36.30;16.02;;;;;;;0.93;100.00;103297.19;5029074;28;20099;-74
2022/01/11 09:40:13;;;;;;;34.30;16.67;;;;;;;0.97;100.00;103307.09;5019515;28;20460;-74
2022/01/11 09:42:39;;;;;;;30.50;15.32;;;;;;;1.00;100.00;103299.63;5023021;28;20029;-73
2022/01/11 09:45:06;;;;;;;33.03;17.50;;;;;;;1.04;100.00;103302.50;5021928;28;20022;-74
2022/01/11 09:47:32;;;;;;;34.10;16.38;;;;;;;1.08;100.00;103299.44;5022039;28;20025;-74
2022/01/11 09:49:57;;;;;;;30.77;16.80;;;;;;;1.14;100.00;103300.00;5027124;28;20366;-73
2022/01/11 09:52:27;;;;;;;30.73;16.45;;;;;;;1.19;100.00;103301.34;5024335;28;20045;-75
2022/01/11 09:54:53;;;;;;;32.08;16.00;;;;;;;1.25;100.00;103299.34;5030242;28;20029;-74
2022/01/11 09:57:18;;;;;;;35.60;16.55;;;;;;;1.31;100.00;103294.72;5029298;28;20025;-74
2022/01/11 09:59:44;;;;;;;28.40;15.70;;;;;;;1.48;100.00;103295.41;5032429;28;20096;-73
2022/01/11 10:02:11;;;;;;;27.88;14.18;;;;;;;1.74;100.00;103289.13;5033777;28;20112;-74
2022/01/11 10:04:37;;;;;;;28.92;14.05;;;;;;;2.04;100.00;103295.31;5017125;28;20030;-75
2022/01/11 10:07:06;;;;;;;25.33;13.52;;;;;;;2.26;100.00;103293.84;5031999;28;20037;-73
2022/01/11 10:09:41;;;;;;;24.90;12.45;;;;;;;2.49;100.00;103282.00;5027064;28;20033;-73
2022/01/11 10:12:10;;;;;;;22.13;12.18;;;;;;;2.67;100.00;103282.72;5033392;28;20025;-74
2022/01/11 10:14:38;;;;;;;22.95;12.93;;;;;;;2.97;100.00;103284.50;5027369;28;20092;-75
2022/01/11 10:17:20;;;;;;;24.27;12.35;;;;;;;3.41;99.43;103293.41;5023227;28;20100;-73
2022/01/11 10:19:49;;;;;;;20.60;12.38;;;;;;;3.82;96.40;103285.56;5019600;28;20061;-73
2022/01/11 10:22:20;;;;;;;21.83;13.13;;;;;;;4.21;94.28;103287.94;5029263;28;20083;-73
2022/01/11 10:24:51;;;;;;;21.50;11.43;;;;;;;4.67;91.90;103298.59;5033465;28;20029;-73
2022/01/11 10:27:20;;;;;;;21.88;12.90;;;;;;;5.07;90.48;103295.63;5000838;28;20030;-73
2022/01/11 10:29:51;;;;;;;25.65;12.98;;;;;;;5.38;87.28;103303.25;5019449;28;20017;-73
2022/01/11 10:32:21;;;;;;;19.60;11.73;;;;;;;5.49;84.70;103296.25;5032358;28;20026;-73
2022/01/11 10:34:51;;;;;;;18.33;11.25;;;;;;;5.89;85.81;103304.53;5026775;28;20029;-73
2022/01/11 10:37:27;;;;;;;21.33;12.77;;;;;;;6.08;84.55;103301.63;5027286;28;20032;-73
2022/01/11 10:40:01;;;;;;;21.02;11.95;;;;;;;6.38;83.04;103300.34;5014474;28;20037;-74
2022/01/11 10:42:29;;;;;;;23.35;11.95;;;;;;;6.71;81.33;103308.81;5014212;28;20514;-74
2022/01/11 10:44:58;;;;;;;19.13;11.63;;;;;;;7.11;79.62;103307.25;5025961;28;20394;-74
2022/01/11 10:47:34;;;;;;;21.67;12.10;;;;;;;6.86;77.67;103287.19;5015315;28;20401;-73
2022/01/11 10:50:10;;;;;;;20.50;11.30;;;;;;;7.15;76.39;103288.31;5022416;28;20029;-74
2022/01/11 10:52:36;;;;;;;23.00;11.40;;;;;;;6.98;75.83;103284.53;5026615;28;20025;-73
2022/01/11 10:55:07;;;;;;;17.13;10.35;;;;;;;6.90;76.72;103284.00;5014568;28;20037;-73
2022/01/11 10:57:40;;;;;;;20.65;11.82;;;;;;;7.18;75.44;103283.34;5017687;28;20060;-73
2022/01/11 11:00:16;;;;;;;15.40;10.55;;;;;;;7.21;74.09;103281.81;5019528;28;20358;-73
2022/01/11 11:02:45;;;;;;;19.73;10.75;;;;;;;7.50;74.26;103280.31;5029328;28;20017;-73
2022/01/11 11:05:40;;;;;;;20.52;11.38;;;;;;;7.89;72.52;103286.41;5020504;28;20033;-73
2022/01/11 11:08:17;;;;;;;20.88;10.55;;;;;;;8.34;72.81;103285.84;5016159;28;20053;-75